sensor_id;sensor_type;location;lat;lon;timestamp;P1;durP1;ratioP1;P2;durP2;ratioP2
33824;SDS011;20127;48.962;8.342;2023-12-20T00:00:42;8.68;;;6.25;;
33824;SDS011;20127;48.962;8.342;2023-12-20T00:01:55;6.28;;;5.32;;
33824;SDS011;20127;48.962;8.342;2023-12-20T00:03:10;6.78;;;5.55;;
33824;SDS011;20127;48.962;8.342;2023-12-20T00:04:23;10.88;;;5.78;;
33824;SDS011;20127;48.962;8.342;2023-12-20T00:05:37;6.75;;;5.93;;
33824;SDS011;20127;48.962;8.342;2023-12-20T00:06:54;8.10;;;5.95;;
33824;SDS011;20127;48.962;8.342;2023-12-20T00:08:09;8.52;;;4.72;;
33824;SDS011;20127;48.962;8.342;2023-12-20T00:09:23;10.25;;;5.95;;
33824;SDS011;20127;48.962;8.342;2023-12-20T00:10:37;9.25;;;5.65;;
33824;SDS011;20127;48.962;8.342;2023-12-20T00:11:51;7.93;;;6.18;;
33824;SDS011;20127;48.962;8.342;2023-12-20T00:13:05;8.32;;;6.47;;
33824;SDS011;20127;48.962;8.342;2023-12-20T00:14:20;9.82;;;6.43;;
33824;SDS011;20127;48.962;8.342;2023-12-20T00:15:34;9.75;;;5.15;;
33824;SDS011;20127;48.962;8.342;2023-12-20T00:16:48;8.48;;;5.75;;
33824;SDS011;20127;48.962;8.342;2023-12-20T00:18:02;8.05;;;5.55;;
33824;SDS011;20127;48.962;8.342;2023-12-20T00:19:16;7.90;;;6.05;;
33824;SDS011;20127;48.962;8.342;2023-12-20T00:20:30;7.50;;;5.72;;
33824;SDS011;20127;48.962;8.342;2023-12-20T00:21:44;10.55;;;6.97;;
33824;SDS011;20127;48.962;8.342;2023-12-20T00:22:58;8.27;;;5.80;;
33824;SDS011;20127;48.962;8.342;2023-12-20T00:24:13;6.63;;;5.95;;
33824;SDS011;20127;48.962;8.342;2023-12-20T00:25:27;9.00;;;5.55;;
33824;SDS011;20127;48.962;8.342;2023-12-20T00:26:41;7.63;;;5.80;;
33824;SDS011;20127;48.962;8.342;2023-12-20T00:27:55;9.55;;;6.50;;
33824;SDS011;20127;48.962;8.342;2023-12-20T00:29:09;8.35;;;5.78;;
33824;SDS011;20127;48.962;8.342;2023-12-20T00:30:23;6.97;;;5.80;;
33824;SDS011;20127;48.962;8.342;2023-12-20T00:31:37;9.55;;;6.07;;
33824;SDS011;20127;48.962;8.342;2023-12-20T00:32:51;9.10;;;6.85;;
33824;SDS011;20127;48.962;8.342;2023-12-20T00:34:05;8.68;;;6.18;;
33824;SDS011;20127;48.962;8.342;2023-12-20T00:35:19;9.77;;;6.00;;
33824;SDS011;20127;48.962;8.342;2023-12-20T00:36:32;8.93;;;6.63;;
33824;SDS011;20127;48.962;8.342;2023-12-20T00:37:47;8.52;;;5.72;;
33824;SDS011;20127;48.962;8.342;2023-12-20T00:39:00;7.57;;;6.68;;
33824;SDS011;20127;48.962;8.342;2023-12-20T00:40:16;8.82;;;6.97;;
33824;SDS011;20127;48.962;8.342;2023-12-20T00:41:30;9.25;;;6.28;;
33824;SDS011;20127;48.962;8.342;2023-12-20T00:42:44;8.10;;;5.40;;
33824;SDS011;20127;48.962;8.342;2023-12-20T00:43:59;9.70;;;5.28;;
33824;SDS011;20127;48.962;8.342;2023-12-20T00:45:14;8.38;;;5.38;;
33824;SDS011;20127;48.962;8.342;2023-12-20T00:46:27;7.97;;;5.30;;
33824;SDS011;20127;48.962;8.342;2023-12-20T00:47:42;6.75;;;4.80;;
33824;SDS011;20127;48.962;8.342;2023-12-20T00:48:55;8.27;;;5.80;;
33824;SDS011;20127;48.962;8.342;2023-12-20T00:50:10;7.88;;;6.15;;
33824;SDS011;20127;48.962;8.342;2023-12-20T00:51:23;9.05;;;6.53;;
33824;SDS011;20127;48.962;8.342;2023-12-20T00:52:38;9.02;;;5.88;;
33824;SDS011;20127;48.962;8.342;2023-12-20T00:53:51;7.57;;;6.25;;
33824;SDS011;20127;48.962;8.342;2023-12-20T00:55:07;7.15;;;6.05;;
33824;SDS011;20127;48.962;8.342;2023-12-20T00:56:22;9.38;;;6.22;;
33824;SDS011;20127;48.962;8.342;2023-12-20T00:57:37;9.18;;;6.65;;
33824;SDS011;20127;48.962;8.342;2023-12-20T00:58:50;7.85;;;5.30;;
33824;SDS011;20127;48.962;8.342;2023-12-20T01:00:05;8.68;;;7.05;;
33824;SDS011;20127;48.962;8.342;2023-12-20T01:01:19;10.32;;;7.20;;
33824;SDS011;20127;48.962;8.342;2023-12-20T01:02:34;8.63;;;7.13;;
33824;SDS011;20127;48.962;8.342;2023-12-20T01:03:47;7.68;;;5.28;;
33824;SDS011;20127;48.962;8.342;2023-12-20T01:05:04;9.43;;;7.43;;
33824;SDS011;20127;48.962;8.342;2023-12-20T01:06:18;7.72;;;5.60;;
33824;SDS011;20127;48.962;8.342;2023-12-20T01:07:33;8.60;;;5.90;;
33824;SDS011;20127;48.962;8.342;2023-12-20T01:08:46;8.48;;;6.07;;
33824;SDS011;20127;48.962;8.342;2023-12-20T01:10:00;9.98;;;5.97;;
33824;SDS011;20127;48.962;8.342;2023-12-20T01:11:14;8.80;;;5.65;;
33824;SDS011;20127;48.962;8.342;2023-12-20T01:12:29;9.00;;;5.43;;
33824;SDS011;20127;48.962;8.342;2023-12-20T01:13:43;10.25;;;6.15;;
33824;SDS011;20127;48.962;8.342;2023-12-20T01:14:57;11.60;;;6.57;;
33824;SDS011;20127;48.962;8.342;2023-12-20T01:16:11;8.02;;;6.68;;
33824;SDS011;20127;48.962;8.342;2023-12-20T01:17:26;7.50;;;5.13;;
33824;SDS011;20127;48.962;8.342;2023-12-20T01:18:39;8.57;;;7.25;;
33824;SDS011;20127;48.962;8.342;2023-12-20T01:19:54;10.98;;;6.70;;
33824;SDS011;20127;48.962;8.342;2023-12-20T01:21:07;6.82;;;6.05;;
33824;SDS011;20127;48.962;8.342;2023-12-20T01:22:22;7.88;;;6.18;;
33824;SDS011;20127;48.962;8.342;2023-12-20T01:23:35;10.77;;;8.30;;
33824;SDS011;20127;48.962;8.342;2023-12-20T01:24:49;10.15;;;7.20;;
33824;SDS011;20127;48.962;8.342;2023-12-20T01:26:03;9.43;;;5.82;;
33824;SDS011;20127;48.962;8.342;2023-12-20T01:27:18;8.45;;;6.07;;
33824;SDS011;20127;48.962;8.342;2023-12-20T01:28:33;7.35;;;5.78;;
33824;SDS011;20127;48.962;8.342;2023-12-20T01:29:47;8.82;;;6.20;;
33824;SDS011;20127;48.962;8.342;2023-12-20T01:31:01;8.75;;;5.88;;
33824;SDS011;20127;48.962;8.342;2023-12-20T01:32:15;8.00;;;6.43;;
33824;SDS011;20127;48.962;8.342;2023-12-20T01:33:29;10.18;;;7.35;;
33824;SDS011;20127;48.962;8.342;2023-12-20T01:34:43;8.82;;;7.25;;
33824;SDS011;20127;48.962;8.342;2023-12-20T01:35:56;8.13;;;6.50;;
33824;SDS011;20127;48.962;8.342;2023-12-20T01:37:11;9.02;;;7.32;;
33824;SDS011;20127;48.962;8.342;2023-12-20T01:38:24;8.48;;;7.25;;
33824;SDS011;20127;48.962;8.342;2023-12-20T01:39:39;10.63;;;7.35;;
33824;SDS011;20127;48.962;8.342;2023-12-20T01:40:52;11.90;;;7.72;;
33824;SDS011;20127;48.962;8.342;2023-12-20T01:42:06;8.10;;;6.50;;
33824;SDS011;20127;48.962;8.342;2023-12-20T01:43:20;12.52;;;8.18;;
33824;SDS011;20127;48.962;8.342;2023-12-20T01:44:36;9.63;;;7.55;;
33824;SDS011;20127;48.962;8.342;2023-12-20T01:45:49;9.57;;;6.90;;
33824;SDS011;20127;48.962;8.342;2023-12-20T01:47:04;11.18;;;7.97;;
33824;SDS011;20127;48.962;8.342;2023-12-20T01:48:17;11.98;;;8.30;;
33824;SDS011;20127;48.962;8.342;2023-12-20T01:49:32;9.25;;;8.07;;
33824;SDS011;20127;48.962;8.342;2023-12-20T01:50:46;10.95;;;8.25;;
33824;SDS011;20127;48.962;8.342;2023-12-20T01:52:00;10.07;;;8.52;;
33824;SDS011;20127;48.962;8.342;2023-12-20T01:53:14;10.95;;;7.70;;
33824;SDS011;20127;48.962;8.342;2023-12-20T01:54:29;10.88;;;7.63;;
33824;SDS011;20127;48.962;8.342;2023-12-20T01:55:43;8.57;;;6.93;;
33824;SDS011;20127;48.962;8.342;2023-12-20T01:56:58;8.70;;;7.55;;
33824;SDS011;20127;48.962;8.342;2023-12-20T01:58:12;10.02;;;7.47;;
33824;SDS011;20127;48.962;8.342;2023-12-20T01:59:27;8.05;;;6.20;;
33824;SDS011;20127;48.962;8.342;2023-12-20T02:00:43;8.30;;;6.32;;
33824;SDS011;20127;48.962;8.342;2023-12-20T02:01:57;8.90;;;6.85;;
33824;SDS011;20127;48.962;8.342;2023-12-20T02:03:11;8.85;;;6.85;;
33824;SDS011;20127;48.962;8.342;2023-12-20T02:04:26;9.23;;;7.10;;
33824;SDS011;20127;48.962;8.342;2023-12-20T02:05:40;8.57;;;6.22;;
33824;SDS011;20127;48.962;8.342;2023-12-20T02:06:54;10.38;;;6.50;;
33824;SDS011;20127;48.962;8.342;2023-12-20T02:08:08;7.82;;;6.75;;
33824;SDS011;20127;48.962;8.342;2023-12-20T02:09:23;10.75;;;7.20;;
33824;SDS011;20127;48.962;8.342;2023-12-20T02:10:36;9.15;;;6.32;;
33824;SDS011;20127;48.962;8.342;2023-12-20T02:11:51;10.50;;;7.20;;
33824;SDS011;20127;48.962;8.342;2023-12-20T02:13:04;9.38;;;7.93;;
33824;SDS011;20127;48.962;8.342;2023-12-20T02:14:19;9.65;;;6.28;;
33824;SDS011;20127;48.962;8.342;2023-12-20T02:15:32;11.02;;;8.48;;
33824;SDS011;20127;48.962;8.342;2023-12-20T02:16:48;8.82;;;6.15;;
33824;SDS011;20127;48.962;8.342;2023-12-20T02:18:02;11.20;;;6.43;;
33824;SDS011;20127;48.962;8.342;2023-12-20T02:19:16;10.50;;;7.72;;
33824;SDS011;20127;48.962;8.342;2023-12-20T02:20:30;12.98;;;7.40;;
33824;SDS011;20127;48.962;8.342;2023-12-20T02:21:46;10.32;;;7.25;;
33824;SDS011;20127;48.962;8.342;2023-12-20T02:23:00;11.90;;;7.05;;
33824;SDS011;20127;48.962;8.342;2023-12-20T02:24:14;9.40;;;6.50;;
33824;SDS011;20127;48.962;8.342;2023-12-20T02:25:27;11.25;;;7.88;;
33824;SDS011;20127;48.962;8.342;2023-12-20T02:26:42;10.52;;;6.78;;
33824;SDS011;20127;48.962;8.342;2023-12-20T02:27:55;10.48;;;7.63;;
33824;SDS011;20127;48.962;8.342;2023-12-20T02:29:10;10.40;;;7.95;;
33824;SDS011;20127;48.962;8.342;2023-12-20T02:30:23;10.60;;;7.43;;
33824;SDS011;20127;48.962;8.342;2023-12-20T02:31:38;11.30;;;7.15;;
33824;SDS011;20127;48.962;8.342;2023-12-20T02:32:51;10.60;;;7.30;;
33824;SDS011;20127;48.962;8.342;2023-12-20T02:34:06;9.25;;;6.82;;
33824;SDS011;20127;48.962;8.342;2023-12-20T02:35:20;10.45;;;6.78;;
33824;SDS011;20127;48.962;8.342;2023-12-20T02:36:34;9.90;;;7.18;;
33824;SDS011;20127;48.962;8.342;2023-12-20T02:37:49;8.43;;;6.80;;
33824;SDS011;20127;48.962;8.342;2023-12-20T02:39:03;11.18;;;7.35;;
33824;SDS011;20127;48.962;8.342;2023-12-20T02:40:17;9.65;;;6.63;;
33824;SDS011;20127;48.962;8.342;2023-12-20T02:41:31;7.68;;;5.63;;
33824;SDS011;20127;48.962;8.342;2023-12-20T02:42:45;11.32;;;7.13;;
33824;SDS011;20127;48.962;8.342;2023-12-20T02:44:00;9.45;;;7.20;;
33824;SDS011;20127;48.962;8.342;2023-12-20T02:45:13;11.55;;;7.15;;
33824;SDS011;20127;48.962;8.342;2023-12-20T02:46:28;13.68;;;6.82;;
33824;SDS011;20127;48.962;8.342;2023-12-20T02:47:41;10.20;;;7.30;;
33824;SDS011;20127;48.962;8.342;2023-12-20T02:48:55;13.93;;;6.68;;
33824;SDS011;20127;48.962;8.342;2023-12-20T02:50:09;8.82;;;6.80;;
33824;SDS011;20127;48.962;8.342;2023-12-20T02:51:23;10.07;;;7.32;;
33824;SDS011;20127;48.962;8.342;2023-12-20T02:52:37;10.57;;;6.82;;
33824;SDS011;20127;48.962;8.342;2023-12-20T02:53:52;10.13;;;8.00;;
33824;SDS011;20127;48.962;8.342;2023-12-20T02:55:06;10.27;;;7.53;;
33824;SDS011;20127;48.962;8.342;2023-12-20T02:56:20;11.23;;;8.55;;
33824;SDS011;20127;48.962;8.342;2023-12-20T02:57:34;13.98;;;7.70;;
33824;SDS011;20127;48.962;8.342;2023-12-20T02:58:49;13.10;;;8.60;;
33824;SDS011;20127;48.962;8.342;2023-12-20T03:00:03;11.40;;;7.60;;
33824;SDS011;20127;48.962;8.342;2023-12-20T03:01:17;13.73;;;8.20;;
33824;SDS011;20127;48.962;8.342;2023-12-20T03:02:31;14.60;;;8.70;;
33824;SDS011;20127;48.962;8.342;2023-12-20T03:03:46;16.55;;;8.77;;
33824;SDS011;20127;48.962;8.342;2023-12-20T03:04:59;10.93;;;7.65;;
33824;SDS011;20127;48.962;8.342;2023-12-20T03:06:15;11.52;;;8.77;;
33824;SDS011;20127;48.962;8.342;2023-12-20T03:07:30;11.35;;;7.65;;
33824;SDS011;20127;48.962;8.342;2023-12-20T03:08:44;11.82;;;8.25;;
33824;SDS011;20127;48.962;8.342;2023-12-20T03:10:00;12.45;;;9.48;;
33824;SDS011;20127;48.962;8.342;2023-12-20T03:11:13;14.10;;;7.85;;
33824;SDS011;20127;48.962;8.342;2023-12-20T03:12:28;12.40;;;8.00;;
33824;SDS011;20127;48.962;8.342;2023-12-20T03:13:41;9.95;;;7.63;;
33824;SDS011;20127;48.962;8.342;2023-12-20T03:14:55;12.30;;;7.63;;
33824;SDS011;20127;48.962;8.342;2023-12-20T03:16:09;12.40;;;8.43;;
33824;SDS011;20127;48.962;8.342;2023-12-20T03:17:23;13.00;;;9.15;;
33824;SDS011;20127;48.962;8.342;2023-12-20T03:18:37;11.43;;;7.50;;
33824;SDS011;20127;48.962;8.342;2023-12-20T03:19:51;11.73;;;7.63;;
33824;SDS011;20127;48.962;8.342;2023-12-20T03:21:05;10.43;;;7.75;;
33824;SDS011;20127;48.962;8.342;2023-12-20T03:22:19;10.50;;;7.05;;
33824;SDS011;20127;48.962;8.342;2023-12-20T03:23:33;11.25;;;7.93;;
33824;SDS011;20127;48.962;8.342;2023-12-20T03:24:47;12.23;;;7.18;;
33824;SDS011;20127;48.962;8.342;2023-12-20T03:26:02;12.25;;;6.72;;
33824;SDS011;20127;48.962;8.342;2023-12-20T03:27:17;11.25;;;8.82;;
33824;SDS011;20127;48.962;8.342;2023-12-20T03:28:30;11.85;;;8.98;;
33824;SDS011;20127;48.962;8.342;2023-12-20T03:29:44;10.77;;;7.93;;
33824;SDS011;20127;48.962;8.342;2023-12-20T03:30:58;11.32;;;7.07;;
33824;SDS011;20127;48.962;8.342;2023-12-20T03:32:12;11.57;;;7.47;;
33824;SDS011;20127;48.962;8.342;2023-12-20T03:33:26;13.82;;;7.72;;
33824;SDS011;20127;48.962;8.342;2023-12-20T03:34:40;8.43;;;6.45;;
33824;SDS011;20127;48.962;8.342;2023-12-20T03:35:54;14.00;;;7.72;;
33824;SDS011;20127;48.962;8.342;2023-12-20T03:37:08;9.07;;;7.28;;
33824;SDS011;20127;48.962;8.342;2023-12-20T03:38:21;10.77;;;7.55;;
33824;SDS011;20127;48.962;8.342;2023-12-20T03:39:36;13.35;;;8.77;;
33824;SDS011;20127;48.962;8.342;2023-12-20T03:40:50;13.00;;;7.80;;
33824;SDS011;20127;48.962;8.342;2023-12-20T03:42:06;10.23;;;7.78;;
33824;SDS011;20127;48.962;8.342;2023-12-20T03:43:19;11.80;;;7.50;;
33824;SDS011;20127;48.962;8.342;2023-12-20T03:44:34;12.57;;;8.48;;
33824;SDS011;20127;48.962;8.342;2023-12-20T03:45:47;16.77;;;7.72;;
33824;SDS011;20127;48.962;8.342;2023-12-20T03:47:02;9.80;;;7.93;;
33824;SDS011;20127;48.962;8.342;2023-12-20T03:48:15;11.85;;;7.78;;
33824;SDS011;20127;48.962;8.342;2023-12-20T03:49:29;10.43;;;7.43;;
33824;SDS011;20127;48.962;8.342;2023-12-20T03:50:43;10.90;;;7.40;;
33824;SDS011;20127;48.962;8.342;2023-12-20T03:51:57;15.43;;;8.55;;
33824;SDS011;20127;48.962;8.342;2023-12-20T03:53:11;11.77;;;7.38;;
33824;SDS011;20127;48.962;8.342;2023-12-20T03:54:25;12.30;;;8.60;;
33824;SDS011;20127;48.962;8.342;2023-12-20T03:55:39;10.13;;;6.85;;
33824;SDS011;20127;48.962;8.342;2023-12-20T03:56:53;10.70;;;7.10;;
33824;SDS011;20127;48.962;8.342;2023-12-20T03:58:08;11.57;;;7.53;;
33824;SDS011;20127;48.962;8.342;2023-12-20T03:59:22;10.30;;;7.25;;
33824;SDS011;20127;48.962;8.342;2023-12-20T04:00:36;9.55;;;7.20;;
33824;SDS011;20127;48.962;8.342;2023-12-20T04:01:50;10.68;;;7.55;;
33824;SDS011;20127;48.962;8.342;2023-12-20T04:03:04;17.15;;;7.80;;
33824;SDS011;20127;48.962;8.342;2023-12-20T04:04:18;9.32;;;6.68;;
33824;SDS011;20127;48.962;8.342;2023-12-20T04:05:32;11.50;;;7.97;;
33824;SDS011;20127;48.962;8.342;2023-12-20T04:06:46;9.27;;;6.97;;
33824;SDS011;20127;48.962;8.342;2023-12-20T04:08:01;10.15;;;7.35;;
33824;SDS011;20127;48.962;8.342;2023-12-20T04:09:16;10.50;;;8.65;;
33824;SDS011;20127;48.962;8.342;2023-12-20T04:10:29;11.05;;;6.90;;
33824;SDS011;20127;48.962;8.342;2023-12-20T04:11:44;8.15;;;6.40;;
33824;SDS011;20127;48.962;8.342;2023-12-20T04:12:57;12.20;;;6.68;;
33824;SDS011;20127;48.962;8.342;2023-12-20T04:14:13;11.02;;;7.30;;
33824;SDS011;20127;48.962;8.342;2023-12-20T04:15:27;11.80;;;6.68;;
33824;SDS011;20127;48.962;8.342;2023-12-20T04:16:41;10.48;;;5.90;;
33824;SDS011;20127;48.962;8.342;2023-12-20T04:17:55;12.75;;;7.45;;
33824;SDS011;20127;48.962;8.342;2023-12-20T04:19:10;9.73;;;6.47;;
33824;SDS011;20127;48.962;8.342;2023-12-20T04:20:23;7.43;;;5.80;;
33824;SDS011;20127;48.962;8.342;2023-12-20T04:21:37;9.02;;;5.90;;
33824;SDS011;20127;48.962;8.342;2023-12-20T04:22:51;8.45;;;5.75;;
33824;SDS011;20127;48.962;8.342;2023-12-20T04:24:05;10.30;;;6.63;;
33824;SDS011;20127;48.962;8.342;2023-12-20T04:25:19;8.85;;;7.13;;
33824;SDS011;20127;48.962;8.342;2023-12-20T04:26:33;8.07;;;5.95;;
33824;SDS011;20127;48.962;8.342;2023-12-20T04:27:47;7.97;;;6.40;;
33824;SDS011;20127;48.962;8.342;2023-12-20T04:29:01;9.38;;;5.80;;
33824;SDS011;20127;48.962;8.342;2023-12-20T04:30:16;7.82;;;6.43;;
33824;SDS011;20127;48.962;8.342;2023-12-20T04:31:30;9.57;;;5.85;;
33824;SDS011;20127;48.962;8.342;2023-12-20T04:32:44;8.98;;;7.10;;
33824;SDS011;20127;48.962;8.342;2023-12-20T04:33:58;9.27;;;6.63;;
33824;SDS011;20127;48.962;8.342;2023-12-20T04:35:12;10.55;;;5.88;;
33824;SDS011;20127;48.962;8.342;2023-12-20T04:36:26;8.85;;;6.72;;
33824;SDS011;20127;48.962;8.342;2023-12-20T04:37:43;7.55;;;5.97;;
33824;SDS011;20127;48.962;8.342;2023-12-20T04:38:56;9.93;;;6.15;;
33824;SDS011;20127;48.962;8.342;2023-12-20T04:40:10;10.50;;;6.50;;
33824;SDS011;20127;48.962;8.342;2023-12-20T04:41:24;8.75;;;6.32;;
33824;SDS011;20127;48.962;8.342;2023-12-20T04:42:40;10.07;;;6.55;;
33824;SDS011;20127;48.962;8.342;2023-12-20T04:43:54;8.63;;;5.57;;
33824;SDS011;20127;48.962;8.342;2023-12-20T04:45:08;8.70;;;6.20;;
33824;SDS011;20127;48.962;8.342;2023-12-20T04:46:23;8.32;;;6.22;;
33824;SDS011;20127;48.962;8.342;2023-12-20T04:47:38;8.27;;;4.88;;
33824;SDS011;20127;48.962;8.342;2023-12-20T04:48:51;7.72;;;5.97;;
33824;SDS011;20127;48.962;8.342;2023-12-20T04:50:06;7.40;;;6.70;;
33824;SDS011;20127;48.962;8.342;2023-12-20T04:51:20;12.88;;;6.60;;
33824;SDS011;20127;48.962;8.342;2023-12-20T04:52:35;7.38;;;6.60;;
33824;SDS011;20127;48.962;8.342;2023-12-20T04:53:48;6.60;;;5.07;;
33824;SDS011;20127;48.962;8.342;2023-12-20T04:55:03;8.57;;;6.25;;
33824;SDS011;20127;48.962;8.342;2023-12-20T04:56:17;8.20;;;4.95;;
33824;SDS011;20127;48.962;8.342;2023-12-20T04:57:31;7.35;;;5.75;;
33824;SDS011;20127;48.962;8.342;2023-12-20T04:58:45;7.43;;;5.60;;
33824;SDS011;20127;48.962;8.342;2023-12-20T05:00:00;11.20;;;6.47;;
33824;SDS011;20127;48.962;8.342;2023-12-20T05:01:13;8.15;;;5.82;;
33824;SDS011;20127;48.962;8.342;2023-12-20T05:02:29;9.15;;;7.90;;
33824;SDS011;20127;48.962;8.342;2023-12-20T05:03:42;10.13;;;6.93;;
33824;SDS011;20127;48.962;8.342;2023-12-20T05:04:57;9.65;;;6.03;;
33824;SDS011;20127;48.962;8.342;2023-12-20T05:06:10;8.60;;;6.28;;
33824;SDS011;20127;48.962;8.342;2023-12-20T05:07:25;23.40;;;17.08;;
33824;SDS011;20127;48.962;8.342;2023-12-20T05:08:38;29.92;;;25.77;;
33824;SDS011;20127;48.962;8.342;2023-12-20T05:09:53;11.48;;;8.95;;
33824;SDS011;20127;48.962;8.342;2023-12-20T05:11:07;9.82;;;7.63;;
33824;SDS011;20127;48.962;8.342;2023-12-20T05:12:21;19.48;;;12.05;;
33824;SDS011;20127;48.962;8.342;2023-12-20T05:13:34;14.60;;;10.02;;
33824;SDS011;20127;48.962;8.342;2023-12-20T05:14:49;17.25;;;13.90;;
33824;SDS011;20127;48.962;8.342;2023-12-20T05:16:02;20.80;;;14.98;;
33824;SDS011;20127;48.962;8.342;2023-12-20T05:17:17;9.68;;;6.93;;
33824;SDS011;20127;48.962;8.342;2023-12-20T05:18:32;26.17;;;16.25;;
33824;SDS011;20127;48.962;8.342;2023-12-20T05:19:46;44.28;;;27.48;;
33824;SDS011;20127;48.962;8.342;2023-12-20T05:21:00;21.17;;;14.55;;
33824;SDS011;20127;48.962;8.342;2023-12-20T05:22:14;20.25;;;13.45;;
33824;SDS011;20127;48.962;8.342;2023-12-20T05:23:28;8.38;;;7.38;;
33824;SDS011;20127;48.962;8.342;2023-12-20T05:24:42;10.65;;;7.35;;
33824;SDS011;20127;48.962;8.342;2023-12-20T05:25:56;16.98;;;11.38;;
33824;SDS011;20127;48.962;8.342;2023-12-20T05:27:12;11.68;;;7.97;;
33824;SDS011;20127;48.962;8.342;2023-12-20T05:28:25;12.25;;;8.98;;
33824;SDS011;20127;48.962;8.342;2023-12-20T05:29:39;9.48;;;7.45;;
33824;SDS011;20127;48.962;8.342;2023-12-20T05:30:53;8.73;;;5.88;;
33824;SDS011;20127;48.962;8.342;2023-12-20T05:32:08;11.95;;;8.07;;
33824;SDS011;20127;48.962;8.342;2023-12-20T05:33:22;12.05;;;8.82;;
33824;SDS011;20127;48.962;8.342;2023-12-20T05:34:37;9.55;;;6.78;;
33824;SDS011;20127;48.962;8.342;2023-12-20T05:35:51;10.80;;;8.10;;
33824;SDS011;20127;48.962;8.342;2023-12-20T05:37:04;6.90;;;6.20;;
33824;SDS011;20127;48.962;8.342;2023-12-20T05:38:19;9.43;;;6.30;;
33824;SDS011;20127;48.962;8.342;2023-12-20T05:39:33;7.35;;;6.55;;
33824;SDS011;20127;48.962;8.342;2023-12-20T05:40:47;12.88;;;8.15;;
33824;SDS011;20127;48.962;8.342;2023-12-20T05:42:00;10.98;;;9.07;;
33824;SDS011;20127;48.962;8.342;2023-12-20T05:43:15;12.23;;;9.95;;
33824;SDS011;20127;48.962;8.342;2023-12-20T05:44:28;14.48;;;11.57;;
33824;SDS011;20127;48.962;8.342;2023-12-20T05:45:43;8.18;;;6.13;;
33824;SDS011;20127;48.962;8.342;2023-12-20T05:46:56;15.23;;;13.60;;
33824;SDS011;20127;48.962;8.342;2023-12-20T05:48:10;8.35;;;6.40;;
33824;SDS011;20127;48.962;8.342;2023-12-20T05:49:24;10.93;;;6.55;;
33824;SDS011;20127;48.962;8.342;2023-12-20T05:50:40;7.60;;;5.28;;
33824;SDS011;20127;48.962;8.342;2023-12-20T05:51:53;7.53;;;5.93;;
33824;SDS011;20127;48.962;8.342;2023-12-20T05:53:08;6.88;;;6.10;;
33824;SDS011;20127;48.962;8.342;2023-12-20T05:54:21;8.82;;;6.32;;
33824;SDS011;20127;48.962;8.342;2023-12-20T05:55:36;8.75;;;5.50;;
33824;SDS011;20127;48.962;8.342;2023-12-20T05:56:49;8.77;;;6.20;;
33824;SDS011;20127;48.962;8.342;2023-12-20T05:58:04;10.82;;;7.82;;
33824;SDS011;20127;48.962;8.342;2023-12-20T05:59:18;10.27;;;8.75;;
33824;SDS011;20127;48.962;8.342;2023-12-20T06:00:32;5.82;;;5.20;;
33824;SDS011;20127;48.962;8.342;2023-12-20T06:01:46;7.22;;;6.05;;
33824;SDS011;20127;48.962;8.342;2023-12-20T06:03:00;6.35;;;5.68;;
33824;SDS011;20127;48.962;8.342;2023-12-20T06:04:14;8.73;;;7.78;;
33824;SDS011;20127;48.962;8.342;2023-12-20T06:05:28;11.13;;;9.80;;
33824;SDS011;20127;48.962;8.342;2023-12-20T06:06:43;6.65;;;5.97;;
33824;SDS011;20127;48.962;8.342;2023-12-20T06:07:58;9.57;;;6.82;;
33824;SDS011;20127;48.962;8.342;2023-12-20T06:09:15;7.07;;;5.88;;
33824;SDS011;20127;48.962;8.342;2023-12-20T06:10:30;9.02;;;6.40;;
33824;SDS011;20127;48.962;8.342;2023-12-20T06:11:43;7.57;;;4.85;;
33824;SDS011;20127;48.962;8.342;2023-12-20T06:12:58;7.40;;;6.05;;
33824;SDS011;20127;48.962;8.342;2023-12-20T06:14:13;9.20;;;6.57;;
33824;SDS011;20127;48.962;8.342;2023-12-20T06:15:28;8.98;;;4.75;;
33824;SDS011;20127;48.962;8.342;2023-12-20T06:16:41;6.82;;;5.30;;
33824;SDS011;20127;48.962;8.342;2023-12-20T06:17:56;8.73;;;6.10;;
33824;SDS011;20127;48.962;8.342;2023-12-20T06:19:09;8.13;;;6.68;;
33824;SDS011;20127;48.962;8.342;2023-12-20T06:20:23;8.20;;;5.90;;
33824;SDS011;20127;48.962;8.342;2023-12-20T06:21:38;7.50;;;5.47;;
33824;SDS011;20127;48.962;8.342;2023-12-20T06:22:54;7.97;;;6.63;;
33824;SDS011;20127;48.962;8.342;2023-12-20T06:24:07;5.97;;;5.22;;
33824;SDS011;20127;48.962;8.342;2023-12-20T06:25:22;6.40;;;4.90;;
33824;SDS011;20127;48.962;8.342;2023-12-20T06:26:36;6.28;;;4.65;;
33824;SDS011;20127;48.962;8.342;2023-12-20T06:27:50;13.88;;;5.32;;
33824;SDS011;20127;48.962;8.342;2023-12-20T06:29:03;6.90;;;5.25;;
33824;SDS011;20127;48.962;8.342;2023-12-20T06:30:18;11.57;;;5.93;;
33824;SDS011;20127;48.962;8.342;2023-12-20T06:31:31;9.05;;;5.30;;
33824;SDS011;20127;48.962;8.342;2023-12-20T06:32:46;8.98;;;5.97;;
33824;SDS011;20127;48.962;8.342;2023-12-20T06:34:00;7.68;;;5.53;;
33824;SDS011;20127;48.962;8.342;2023-12-20T06:35:15;9.23;;;5.13;;
33824;SDS011;20127;48.962;8.342;2023-12-20T06:36:28;5.63;;;5.00;;
33824;SDS011;20127;48.962;8.342;2023-12-20T06:37:43;6.45;;;4.95;;
33824;SDS011;20127;48.962;8.342;2023-12-20T06:38:58;6.03;;;5.10;;
33824;SDS011;20127;48.962;8.342;2023-12-20T06:40:12;6.97;;;4.25;;
33824;SDS011;20127;48.962;8.342;2023-12-20T06:41:25;6.97;;;4.10;;
33824;SDS011;20127;48.962;8.342;2023-12-20T06:42:40;5.32;;;3.72;;
33824;SDS011;20127;48.962;8.342;2023-12-20T06:43:53;5.65;;;4.80;;
33824;SDS011;20127;48.962;8.342;2023-12-20T06:45:08;7.20;;;3.95;;
33824;SDS011;20127;48.962;8.342;2023-12-20T06:46:22;5.03;;;3.70;;
33824;SDS011;20127;48.962;8.342;2023-12-20T06:47:36;4.60;;;3.58;;
33824;SDS011;20127;48.962;8.342;2023-12-20T06:48:50;6.75;;;3.28;;
33824;SDS011;20127;48.962;8.342;2023-12-20T06:50:04;3.80;;;3.38;;
33824;SDS011;20127;48.962;8.342;2023-12-20T06:51:19;2.83;;;2.55;;
33824;SDS011;20127;48.962;8.342;2023-12-20T06:52:33;5.40;;;4.05;;
33824;SDS011;20127;48.962;8.342;2023-12-20T06:53:47;4.68;;;3.42;;
33824;SDS011;20127;48.962;8.342;2023-12-20T06:55:02;5.47;;;3.67;;
33824;SDS011;20127;48.962;8.342;2023-12-20T06:56:17;3.95;;;3.05;;
33824;SDS011;20127;48.962;8.342;2023-12-20T06:57:31;4.18;;;3.53;;
33824;SDS011;20127;48.962;8.342;2023-12-20T06:58:45;6.80;;;3.92;;
33824;SDS011;20127;48.962;8.342;2023-12-20T06:59:59;4.05;;;3.03;;
33824;SDS011;20127;48.962;8.342;2023-12-20T07:01:13;4.22;;;3.28;;
33824;SDS011;20127;48.962;8.342;2023-12-20T07:02:28;7.75;;;3.70;;
33824;SDS011;20127;48.962;8.342;2023-12-20T07:03:43;4.43;;;3.40;;
33824;SDS011;20127;48.962;8.342;2023-12-20T07:04:56;3.33;;;3.03;;
33824;SDS011;20127;48.962;8.342;2023-12-20T07:06:11;3.72;;;3.42;;
33824;SDS011;20127;48.962;8.342;2023-12-20T07:07:24;4.43;;;3.42;;
33824;SDS011;20127;48.962;8.342;2023-12-20T07:08:39;5.50;;;4.30;;
33824;SDS011;20127;48.962;8.342;2023-12-20T07:09:53;6.38;;;3.95;;
33824;SDS011;20127;48.962;8.342;2023-12-20T07:11:08;7.53;;;4.47;;
33824;SDS011;20127;48.962;8.342;2023-12-20T07:12:22;4.82;;;3.45;;
33824;SDS011;20127;48.962;8.342;2023-12-20T07:13:36;5.47;;;4.35;;
33824;SDS011;20127;48.962;8.342;2023-12-20T07:14:50;9.55;;;4.47;;
33824;SDS011;20127;48.962;8.342;2023-12-20T07:16:04;5.40;;;4.22;;
33824;SDS011;20127;48.962;8.342;2023-12-20T07:17:18;5.55;;;4.80;;
33824;SDS011;20127;48.962;8.342;2023-12-20T07:18:32;5.07;;;4.57;;
33824;SDS011;20127;48.962;8.342;2023-12-20T07:19:46;6.25;;;4.43;;
33824;SDS011;20127;48.962;8.342;2023-12-20T07:21:00;6.18;;;4.47;;
33824;SDS011;20127;48.962;8.342;2023-12-20T07:22:14;4.40;;;3.95;;
33824;SDS011;20127;48.962;8.342;2023-12-20T07:23:28;5.55;;;4.90;;
33824;SDS011;20127;48.962;8.342;2023-12-20T07:24:42;5.97;;;4.60;;